Time;durP1;ratioP1;P1;durP2;ratioP2;P2;SDS_P1;SDS_P2;PMS_P1;PMS_P2;Temp;Humidity;BMP_temperature;BMP_pressure;BME280_temperature;BME280_humidity;BME280_pressure;Samples;Min_cycle;Max_cycle;Signal;HPM_P1;HPM_P2
2023/07/03 00:02:21;;;;;;;17.10;11.50;;;26.00;39.20;;;;;;5067406;28;20296;-52
2023/07/03 00:04:47;;;;;;;15.70;12.17;;;25.90;39.30;;;;;;5063345;28;20207;-49
2023/07/03 00:07:14;;;;;;;19.30;12.90;;;25.90;39.50;;;;;;5071876;28;20211;-49
2023/07/03 00:09:40;;;;;;;20.27;13.00;;;25.70;39.70;;;;;;5066625;28;20200;-52
2023/07/03 00:12:06;;;;;;;17.77;12.63;;;25.60;40.10;;;;;;5073471;28;20511;-51
2023/07/03 00:14:31;;;;;;;19.80;11.80;;;25.40;40.40;;;;;;5071084;28;20231;-50
2023/07/03 00:16:57;;;;;;;17.60;12.50;;;25.30;40.80;;;;;;5064831;28;20536;-49
2023/07/03 00:19:26;;;;;;;14.60;11.10;;;25.20;41.50;;;;;;5070300;28;20193;-51
2023/07/03 00:21:52;;;;;;;16.30;12.93;;;25.10;41.70;;;;;;5064899;28;20206;-51
2023/07/03 00:24:18;;;;;;;16.63;12.17;;;25.20;41.30;;;;;;5064216;28;20446;-49
2023/07/03 00:26:44;;;;;;;16.00;12.17;;;25.30;41.20;;;;;;5066098;28;20433;-49
2023/07/03 00:29:09;;;;;;;18.17;12.70;;;25.20;41.20;;;;;;5083704;28;20206;-50
2023/07/03 00:31:35;;;;;;;18.20;13.27;;;25.10;41.70;;;;;;5079462;28;20270;-51
2023/07/03 00:34:00;;;;;;;19.23;11.97;;;25.10;41.50;;;;;;5074918;28;20196;-51
2023/07/03 00:36:26;;;;;;;17.80;12.70;;;25.20;41.50;;;;;;5068774;28;20277;-50
2023/07/03 00:38:57;;;;;;;18.27;12.40;;;25.30;41.60;;;;;;5060965;28;21428;-48
2023/07/03 00:41:24;;;;;;;19.20;13.20;;;25.30;41.30;;;;;;5061218;28;20485;-50
2023/07/03 00:43:50;;;;;;;20.07;12.87;;;25.40;41.10;;;;;;5066469;28;20485;-51
2023/07/03 00:46:16;;;;;;;19.00;12.27;;;25.40;41.00;;;;;;5058998;28;20442;-48
2023/07/03 00:48:42;;;;;;;20.20;13.30;;;25.30;41.30;;;;;;5080710;28;20452;-51
2023/07/03 00:51:10;;;;;;;17.80;13.70;;;25.10;41.40;;;;;;5067345;28;20196;-51
2023/07/03 00:53:35;;;;;;;14.77;11.70;;;25.00;41.80;;;;;;5073000;28;20185;-50
2023/07/03 00:56:03;;;;;;;17.63;11.20;;;25.00;42.20;;;;;;5061761;28;20469;-50
2023/07/03 00:58:29;;;;;;;16.63;12.00;;;25.00;42.70;;;;;;5080663;28;20203;-50
2023/07/03 01:01:34;;;;;;;19.13;12.07;;;25.00;42.40;;;;;;5063847;28;20811;-50
2023/07/03 01:04:09;;;;;;;17.97;12.20;;;25.10;42.30;;;;;;5076451;28;20202;-52
2023/07/03 01:06:40;;;;;;;20.80;12.17;;;25.10;41.90;;;;;;5060074;28;20449;-46
2023/07/03 01:09:09;;;;;;;17.57;11.50;;;25.20;42.00;;;;;;5077616;28;20495;-51
2023/07/03 01:11:36;;;;;;;17.33;11.77;;;25.20;41.80;;;;;;5061498;28;20446;-50
2023/07/03 01:14:03;;;;;;;15.30;11.13;;;25.30;41.70;;;;;;5064258;28;20439;-49
2023/07/03 01:16:32;;;;;;;15.90;11.70;;;25.30;41.30;;;;;;5071731;28;20975;-50
2023/07/03 01:18:59;;;;;;;16.70;11.33;;;25.30;41.50;;;;;;5067519;28;20489;-53
2023/07/03 01:21:36;;;;;;;18.53;12.80;;;25.10;41.40;;;;;;5057729;28;20445;-48
2023/07/03 01:24:15;;;;;;;14.60;12.00;;;24.70;42.20;;;;;;5062028;28;20454;-49
2023/07/03 01:26:43;;;;;;;17.33;12.13;;;24.50;43.00;;;;;;5074360;28;21264;-47
2023/07/03 01:29:10;;;;;;;17.10;11.50;;;24.50;42.90;;;;;;5070904;28;20438;-51
2023/07/03 01:31:37;;;;;;;18.13;11.87;;;24.40;42.60;;;;;;5060607;28;20521;-49
2023/07/03 01:34:06;;;;;;;12.50;9.90;;;24.30;42.70;;;;;;5057356;28;20615;-48
2023/07/03 01:36:33;;;;;;;18.50;11.70;;;24.50;42.70;;;;;;5058932;28;20492;-51
2023/07/03 01:39:02;;;;;;;17.77;12.20;;;24.30;42.40;;;;;;5070250;28;20458;-47
2023/07/03 01:41:29;;;;;;;18.80;11.97;;;24.50;42.40;;;;;;5064981;28;20537;-47
2023/07/03 01:43:55;;;;;;;17.70;11.97;;;24.70;42.40;;;;;;5064509;28;21215;-51
2023/07/03 01:46:22;;;;;;;18.20;11.57;;;24.80;42.00;;;;;;5066842;28;20450;-51
2023/07/03 01:48:48;;;;;;;13.80;11.43;;;24.90;42.10;;;;;;5067317;28;20204;-51
2023/07/03 01:51:25;;;;;;;16.97;11.87;;;24.70;42.30;;;;;;5076117;28;20435;-50
2023/07/03 01:54:01;;;;;;;15.40;11.33;;;24.80;42.50;;;;;;5063537;28;20437;-52
2023/07/03 01:56:32;;;;;;;17.40;12.90;;;24.90;42.40;;;;;;5064441;28;20498;-49
2023/07/03 01:59:20;;;;;;;14.97;10.87;;;25.00;42.10;;;;;;5060103;28;20443;-50
2023/07/03 02:01:45;;;;;;;17.00;11.30;;;25.10;41.70;;;;;;5063575;28;20544;-46
2023/07/03 02:04:31;;;;;;;17.07;12.00;;;25.20;41.70;;;;;;5056628;28;20477;-47
2023/07/03 02:06:58;;;;;;;14.57;10.83;;;25.20;41.60;;;;;;5055083;28;20200;-47
2023/07/03 02:09:25;;;;;;;15.53;11.23;;;25.30;41.30;;;;;;5077683;28;20433;-46
2023/07/03 02:11:52;;;;;;;18.10;12.47;;;25.40;41.10;;;;;;5078856;28;20434;-48
2023/07/03 02:14:18;;;;;;;21.23;13.90;;;25.50;40.70;;;;;;5072716;28;20493;-46
2023/07/03 02:16:46;;;;;;;18.47;11.50;;;25.50;40.40;;;;;;5063994;28;20524;-47
2023/07/03 02:19:14;;;;;;;16.77;11.07;;;25.20;40.10;;;;;;5070302;28;20457;-47
2023/07/03 02:21:41;;;;;;;18.80;11.93;;;25.20;41.00;;;;;;5068924;28;20565;-47
2023/07/03 02:24:08;;;;;;;14.83;10.50;;;25.30;40.60;;;;;;5080044;28;20433;-47
2023/07/03 02:26:33;;;;;;;16.77;11.60;;;25.20;40.80;;;;;;5068765;28;21081;-49
2023/07/03 02:28:59;;;;;;;17.33;11.53;;;25.30;40.70;;;;;;5076426;28;20483;-46
2023/07/03 02:31:24;;;;;;;21.50;12.50;;;25.50;40.90;;;;;;5072674;28;20249;-47
2023/07/03 02:33:50;;;;;;;17.00;11.73;;;25.50;40.60;;;;;;5080109;28;20199;-50
2023/07/03 02:36:16;;;;;;;13.10;10.10;;;25.60;40.60;;;;;;5068525;28;20314;-51
2023/07/03 02:38:41;;;;;;;17.00;11.80;;;25.60;40.60;;;;;;5071119;28;20725;-47
2023/07/03 02:41:07;;;;;;;15.87;12.20;;;25.70;40.40;;;;;;5078951;28;20288;-47
2023/07/03 02:43:32;;;;;;;14.93;11.20;;;25.70;40.10;;;;;;5072145;28;20200;-47
2023/07/03 02:46:03;;;;;;;16.23;11.07;;;25.70;40.30;;;;;;5071215;28;20192;-47
2023/07/03 02:48:28;;;;;;;14.80;11.23;;;25.70;40.30;;;;;;5069448;28;20227;-47
2023/07/03 02:50:54;;;;;;;18.57;12.70;;;25.70;40.50;;;;;;5075446;28;20474;-46
2023/07/03 02:53:19;;;;;;;14.13;11.80;;;25.60;39.90;;;;;;5083151;28;20634;-49
2023/07/03 02:55:53;;;;;;;17.37;12.27;;;25.40;40.50;;;;;;5068600;28;20228;-51
2023/07/03 02:58:19;;;;;;;16.80;11.40;;;25.30;40.40;;;;;;5064413;28;20686;-48
2023/07/03 03:00:46;;;;;;;17.57;11.33;;;25.10;40.60;;;;;;5074322;28;20437;-47
2023/07/03 03:03:13;;;;;;;18.17;11.80;;;25.10;40.90;;;;;;5085155;28;20839;-46
2023/07/03 03:05:39;;;;;;;15.23;11.33;;;25.00;41.20;;;;;;5083918;28;20814;-47
2023/07/03 03:08:05;;;;;;;18.20;11.23;;;25.10;40.80;;;;;;5073011;28;20442;-46
2023/07/03 03:10:30;;;;;;;15.57;10.63;;;25.10;40.60;;;;;;5065143;28;20192;-48
2023/07/03 03:12:56;;;;;;;14.80;11.40;;;25.10;40.80;;;;;;5065847;28;20253;-47
2023/07/03 03:15:21;;;;;;;17.17;11.23;;;25.10;40.90;;;;;;5068652;28;20216;-50
2023/07/03 03:17:47;;;;;;;16.13;10.73;;;25.10;41.30;;;;;;5063733;28;20708;-46
2023/07/03 03:20:16;;;;;;;19.03;11.07;;;25.10;41.20;;;;;;5056685;28;20278;-48
2023/07/03 03:22:41;;;;;;;13.50;10.67;;;25.10;41.20;;;;;;5063677;28;20219;-46
2023/07/03 03:25:07;;;;;;;18.77;13.17;;;25.10;41.40;;;;;;5060372;28;20529;-47
2023/07/03 03:27:33;;;;;;;20.03;12.40;;;25.00;41.40;;;;;;5079610;28;20275;-46
2023/07/03 03:29:58;;;;;;;18.57;11.90;;;24.90;41.80;;;;;;5062011;28;20556;-46
2023/07/03 03:32:24;;;;;;;17.27;11.40;;;24.90;41.90;;;;;;5077046;28;20187;-48
2023/07/03 03:34:50;;;;;;;17.67;11.30;;;24.90;42.10;;;;;;5073915;28;20203;-48
2023/07/03 03:37:17;;;;;;;21.30;12.57;;;24.80;42.00;;;;;;5070281;28;20870;-46
2023/07/03 03:39:43;;;;;;;14.20;11.67;;;24.80;42.10;;;;;;5061399;28;20196;-46
2023/07/03 03:42:09;;;;;;;15.20;11.60;;;24.80;42.10;;;;;;5080124;28;20429;-47
2023/07/03 03:44:35;;;;;;;14.43;11.43;;;24.80;42.20;;;;;;5062262;28;20470;-51
2023/07/03 03:47:02;;;;;;;18.30;12.30;;;24.80;41.90;;;;;;5073737;28;20450;-47
2023/07/03 03:49:28;;;;;;;19.63;11.73;;;24.80;41.90;;;;;;5069051;28;20460;-46
2023/07/03 03:51:53;;;;;;;14.87;11.30;;;24.80;42.00;;;;;;5064664;28;20445;-52
2023/07/03 03:54:19;;;;;;;14.60;11.10;;;24.80;41.90;;;;;;5078700;28;20249;-46
2023/07/03 03:56:45;;;;;;;19.40;12.47;;;24.70;42.10;;;;;;5081751;28;20243;-46
2023/07/03 03:59:10;;;;;;;15.50;11.20;;;24.80;42.00;;;;;;5071205;28;20286;-47
2023/07/03 04:01:36;;;;;;;16.40;11.00;;;24.90;41.90;;;;;;5075683;28;20595;-50
2023/07/03 04:04:02;;;;;;;15.63;11.50;;;24.80;41.90;;;;;;5064104;28;20299;-47
2023/07/03 04:06:27;;;;;;;18.13;12.40;;;24.90;41.90;;;;;;5079164;28;20200;-46
2023/07/03 04:08:53;;;;;;;15.50;11.43;;;24.80;41.90;;;;;;5061471;28;20196;-46
2023/07/03 04:11:20;;;;;;;15.80;12.07;;;24.80;42.00;;;;;;5081543;28;20206;-46
2023/07/03 04:13:46;;;;;;;14.70;11.50;;;24.80;42.10;;;;;;5065364;28;20188;-50
2023/07/03 04:16:12;;;;;;;16.47;11.67;;;24.70;42.00;;;;;;5062858;28;20798;-46
2023/07/03 04:18:40;;;;;;;15.80;11.63;;;24.60;42.30;;;;;;5061042;28;20315;-47
2023/07/03 04:21:06;;;;;;;15.40;11.00;;;24.60;42.40;;;;;;5072340;28;20438;-48
2023/07/03 04:23:32;;;;;;;14.43;10.83;;;24.30;42.60;;;;;;5056236;28;20445;-48
2023/07/03 04:25:57;;;;;;;16.13;11.03;;;24.20;42.80;;;;;;5079056;28;20638;-46
2023/07/03 04:28:23;;;;;;;15.97;11.07;;;24.20;43.10;;;;;;5067855;28;20188;-51
2023/07/03 04:30:49;;;;;;;17.70;12.00;;;24.10;43.20;;;;;;5072312;28;20196;-48
2023/07/03 04:33:16;;;;;;;17.87;11.10;;;24.10;43.20;;;;;;5060207;28;20202;-47
2023/07/03 04:35:42;;;;;;;15.60;12.13;;;24.20;43.40;;;;;;5060156;28;20859;-47
2023/07/03 04:38:08;;;;;;;14.53;10.73;;;24.20;43.30;;;;;;5071951;28;20488;-49
2023/07/03 04:40:34;;;;;;;21.00;12.13;;;24.20;43.30;;;;;;5062972;28;21120;-46
2023/07/03 04:43:00;;;;;;;18.30;11.37;;;24.20;43.40;;;;;;5067612;28;21021;-47
2023/07/03 04:45:26;;;;;;;17.60;11.83;;;24.20;43.30;;;;;;5054032;28;20480;-46
2023/07/03 04:47:53;;;;;;;16.87;11.13;;;24.30;43.30;;;;;;5062001;28;20292;-48
2023/07/03 04:50:20;;;;;;;15.20;11.20;;;24.30;43.20;;;;;;5062959;28;20555;-46
2023/07/03 04:52:48;;;;;;;15.10;11.90;;;24.40;43.20;;;;;;5073847;28;20442;-46
2023/07/03 04:55:14;;;;;;;15.50;10.67;;;24.30;43.20;;;;;;5070123;28;20821;-49
2023/07/03 04:57:42;;;;;;;20.03;11.63;;;24.20;43.50;;;;;;5077265;28;20488;-46
2023/07/03 05:00:14;;;;;;;15.07;10.80;;;24.30;43.60;;;;;;5057735;28;20188;-46
2023/07/03 05:02:41;;;;;;;16.63;10.93;;;24.10;43.50;;;;;;5057871;28;20474;-48
2023/07/03 05:05:07;;;;;;;15.47;10.90;;;24.00;43.70;;;;;;5072006;28;20902;-46
2023/07/03 05:07:32;;;;;;;12.10;10.10;;;24.10;43.70;;;;;;5080065;28;20529;-51
2023/07/03 05:09:58;;;;;;;15.70;11.40;;;24.00;43.50;;;;;;5074731;28;20437;-46
2023/07/03 05:12:24;;;;;;;16.10;10.63;;;24.00;43.70;;;;;;5063997;28;20650;-49
2023/07/03 05:14:49;;;;;;;14.93;11.40;;;24.00;43.50;;;;;;5065125;28;20195;-46
2023/07/03 05:17:15;;;;;;;17.80;10.90;;;24.00;43.70;;;;;;5067864;28;20305;-47
2023/07/03 05:19:40;;;;;;;21.70;10.60;;;24.00;43.70;;;;;;5074835;28;20195;-49
2023/07/03 05:22:06;;;;;;;16.13;10.80;;;24.00;43.70;;;;;;5075392;28;20295;-48
2023/07/03 05:24:32;;;;;;;16.30;10.30;;;24.00;43.80;;;;;;5066619;28;20659;-48
2023/07/03 05:26:57;;;;;;;16.70;11.13;;;24.10;43.80;;;;;;5061278;28;20261;-47
2023/07/03 05:29:23;;;;;;;16.13;9.87;;;24.10;43.70;;;;;;5074457;28;20187;-47
2023/07/03 05:31:48;;;;;;;12.57;9.50;;;24.10;43.60;;;;;;5073926;28;20609;-46
2023/07/03 05:34:14;;;;;;;14.70;10.13;;;24.10;43.30;;;;;;5069116;28;20651;-47
2023/07/03 05:36:40;;;;;;;12.60;9.47;;;24.00;43.20;;;;;;5071092;28;21019;-47
2023/07/03 05:39:05;;;;;;;14.50;10.13;;;23.90;43.80;;;;;;5074180;28;20191;-48
2023/07/03 05:41:31;;;;;;;15.43;9.03;;;23.70;43.80;;;;;;5071515;28;20530;-48
2023/07/03 05:43:56;;;;;;;14.50;9.70;;;23.80;43.90;;;;;;5066934;28;20200;-47
2023/07/03 05:46:22;;;;;;;16.67;9.67;;;23.90;44.00;;;;;;5066980;28;20529;-48
2023/07/03 05:48:49;;;;;;;13.03;9.20;;;23.90;43.70;;;;;;5075131;28;20191;-48
2023/07/03 05:51:14;;;;;;;13.20;9.20;;;23.90;43.90;;;;;;5079330;28;20187;-47
2023/07/03 05:53:40;;;;;;;12.87;8.03;;;23.80;43.70;;;;;;5078514;28;20583;-48
2023/07/03 05:56:05;;;;;;;14.97;10.33;;;24.00;43.90;;;;;;5065084;28;20787;-47
2023/07/03 05:58:32;;;;;;;12.50;9.27;;;23.90;44.00;;;;;;5074360;28;20457;-47
2023/07/03 06:00:58;;;;;;;15.57;10.17;;;24.00;44.10;;;;;;5072389;28;20235;-47
2023/07/03 06:03:25;;;;;;;13.97;9.00;;;24.00;44.10;;;;;;5070754;28;20438;-49
2023/07/03 06:05:51;;;;;;;15.10;9.80;;;24.10;43.90;;;;;;5071064;28;20808;-48
2023/07/03 06:08:17;;;;;;;12.07;9.77;;;24.10;43.90;;;;;;5066489;28;20478;-47
2023/07/03 06:10:44;;;;;;;14.90;9.17;;;24.00;44.10;;;;;;5070255;28;20489;-47
2023/07/03 06:13:09;;;;;;;14.83;9.80;;;24.10;44.00;;;;;;5075578;28;20562;-48
2023/07/03 06:15:35;;;;;;;12.60;8.77;;;24.10;44.10;;;;;;5062236;28;20433;-47
2023/07/03 06:18:04;;;;;;;14.60;9.87;;;24.20;44.10;;;;;;5069436;28;20231;-47
2023/07/03 06:20:30;;;;;;;15.37;8.67;;;24.20;43.80;;;;;;5069835;28;20643;-47
2023/07/03 06:22:55;;;;;;;13.20;8.83;;;24.10;43.70;;;;;;5071060;28;20438;-48
2023/07/03 06:25:21;;;;;;;14.33;8.90;;;24.30;44.00;;;;;;5058962;28;20442;-48
2023/07/03 06:27:47;;;;;;;18.93;10.23;;;24.40;44.10;;;;;;5064240;28;20191;-47
2023/07/03 06:30:13;;;;;;;13.20;9.10;;;24.50;43.90;;;;;;5073097;28;20249;-48
2023/07/03 06:32:39;;;;;;;16.07;8.83;;;24.40;44.00;;;;;;5085207;28;20975;-47
2023/07/03 06:35:06;;;;;;;13.37;8.80;;;24.40;43.80;;;;;;5073768;28;20203;-48
2023/07/03 06:37:31;;;;;;;12.03;8.70;;;24.50;43.20;;;;;;5073450;28;20496;-47
2023/07/03 06:39:57;;;;;;;14.40;8.73;;;24.00;43.00;;;;;;5075757;28;20438;-50
2023/07/03 06:42:23;;;;;;;15.60;8.17;;;23.90;43.50;;;;;;5076434;28;20199;-47
2023/07/03 06:44:49;;;;;;;11.27;9.50;;;24.00;44.00;;;;;;5073597;28;20429;-48
2023/07/03 06:47:14;;;;;;;13.80;8.20;;;24.00;44.60;;;;;;5074167;28;20292;-47
2023/07/03 06:49:40;;;;;;;14.90;10.03;;;24.00;44.00;;;;;;5073606;28;21008;-46
2023/07/03 06:52:06;;;;;;;12.67;8.57;;;24.00;44.60;;;;;;5069417;28;20191;-51
2023/07/03 06:54:32;;;;;;;15.00;9.43;;;24.10;44.40;;;;;;5080532;28;20249;-47
2023/07/03 06:56:57;;;;;;;14.20;9.63;;;24.00;44.80;;;;;;5073673;28;20227;-49
2023/07/03 06:59:23;;;;;;;14.20;9.33;;;24.00;45.00;;;;;;5073391;28;20714;-47
2023/07/03 07:01:48;;;;;;;12.33;8.00;;;24.00;44.90;;;;;;5073622;28;20232;-48
2023/07/03 07:04:15;;;;;;;12.50;8.67;;;24.00;44.30;;;;;;5069719;28;20291;-46
2023/07/03 07:06:40;;;;;;;13.53;8.53;;;24.00;44.50;;;;;;5067016;28;20663;-53
2023/07/03 07:09:06;;;;;;;12.87;9.23;;;23.80;44.90;;;;;;5065418;28;20530;-47
2023/07/03 07:11:35;;;;;;;11.90;8.63;;;23.80;45.10;;;;;;5067528;28;20242;-47
2023/07/03 07:14:05;;;;;;;14.00;9.30;;;24.00;45.20;;;;;;5065693;28;20201;-47
2023/07/03 07:16:34;;;;;;;19.90;10.90;;;24.10;44.90;;;;;;5070670;28;20998;-47
2023/07/03 07:19:03;;;;;;;16.00;10.07;;;24.30;44.70;;;;;;5071794;28;21024;-48
2023/07/03 07:21:34;;;;;;;13.87;9.40;;;24.30;44.60;;;;;;5077100;28;20449;-47
2023/07/03 07:24:20;;;;;;;13.20;8.73;;;24.30;44.30;;;;;;5072956;28;20446;-47
2023/07/03 07:26:47;;;;;;;13.07;8.73;;;24.10;44.70;;;;;;5071110;28;20421;-48
2023/07/03 07:29:13;;;;;;;11.43;8.17;;;24.30;44.90;;;;;;5072453;28;20480;-47
2023/07/03 07:31:39;;;;;;;12.33;8.60;;;24.50;44.50;;;;;;5072449;28;20493;-47
2023/07/03 07:34:06;;;;;;;11.80;7.87;;;24.50;44.20;;;;;;5073779;28;20199;-52
2023/07/03 07:36:32;;;;;;;16.50;8.40;;;24.40;43.40;;;;;;5081882;28;20485;-47
2023/07/03 07:39:00;;;;;;;19.90;8.80;;;24.50;43.60;;;;;;5069195;28;20434;-47
2023/07/03 07:41:26;;;;;;;12.50;7.80;;;24.20;43.20;;;;;;5074123;28;20488;-49
2023/07/03 07:43:52;;;;;;;10.50;8.40;;;24.50;43.40;;;;;;5078196;28;20532;-47
2023/07/03 07:46:19;;;;;;;13.50;8.33;;;24.50;42.90;;;;;;5075555;28;20438;-47
2023/07/03 07:48:47;;;;;;;12.47;8.57;;;24.40;43.50;;;;;;5077217;28;20481;-50
2023/07/03 07:51:13;;;;;;;15.00;8.50;;;24.60;43.60;;;;;;5078104;28;20453;-52
2023/07/03 07:53:39;;;;;;;16.80;9.33;;;24.80;43.70;;;;;;5085784;28;20449;-48
2023/07/03 07:56:07;;;;;;;12.20;7.90;;;24.90;43.90;;;;;;5067766;28;20255;-48
2023/07/03 07:58:33;;;;;;;16.10;9.27;;;24.90;44.00;;;;;;5065823;28;20471;-47
2023/07/03 08:00:59;;;;;;;13.93;8.40;;;24.90;43.90;;;;;;5065299;28;20438;-49
2023/07/03 08:03:25;;;;;;;12.97;8.60;;;24.90;44.10;;;;;;5064874;28;20785;-53
2023/07/03 08:06:00;;;;;;;11.60;8.17;;;24.90;44.30;;;;;;5062470;28;20237;-50
2023/07/03 08:08:26;;;;;;;16.43;8.80;;;24.80;44.50;;;;;;5067633;28;20465;-47
2023/07/03 08:10:57;;;;;;;12.43;8.80;;;24.90;44.70;;;;;;5069814;28;20996;-47
2023/07/03 08:13:23;;;;;;;14.40;8.77;;;24.90;44.70;;;;;;5070492;28;20446;-51
2023/07/03 08:15:49;;;;;;;14.93;8.70;;;24.60;44.80;;;;;;5067297;28;20437;-50
2023/07/03 08:18:16;;;;;;;14.90;9.23;;;24.50;45.10;;;;;;5066791;28;20496;-48
2023/07/03 08:20:42;;;;;;;17.43;9.83;;;24.50;45.20;;;;;;5065242;28;20648;-48
2023/07/03 08:23:08;;;;;;;13.73;8.87;;;24.60;45.30;;;;;;5070634;28;20426;-48
2023/07/03 08:25:34;;;;;;;14.13;9.70;;;24.70;45.30;;;;;;5068267;28;20936;-50
2023/07/03 08:27:59;;;;;;;14.47;8.00;;;24.70;45.50;;;;;;5070253;28;20204;-51
2023/07/03 08:30:25;;;;;;;13.17;9.10;;;24.80;45.40;;;;;;5069356;28;20309;-47
2023/07/03 08:32:51;;;;;;;14.57;8.63;;;25.00;45.30;;;;;;5065567;28;20266;-50
2023/07/03 08:35:17;;;;;;;16.20;9.80;;;25.10;45.00;;;;;;5070570;28;20196;-52
2023/07/03 08:37:43;;;;;;;11.43;9.10;;;25.40;44.70;;;;;;5064868;28;20260;-48
2023/07/03 08:40:10;;;;;;;14.20;9.10;;;25.60;44.10;;;;;;5060781;28;20220;-49
2023/07/03 08:42:44;;;;;;;18.40;9.63;;;25.50;44.30;;;;;;5063175;28;20438;-47
2023/07/03 08:45:14;;;;;;;15.30;9.50;;;25.50;44.30;;;;;;5067093;28;21113;-48
2023/07/03 08:47:41;;;;;;;18.70;9.10;;;25.40;44.80;;;;;;5066107;28;20434;-48
2023/07/03 08:50:08;;;;;;;13.60;8.80;;;25.30;44.50;;;;;;5048409;28;20945;-51
2023/07/03 08:52:45;;;;;;;13.30;9.00;;;25.40;44.30;;;;;;5084877;28;20446;-49
2023/07/03 08:55:17;;;;;;;15.40;9.60;;;25.40;44.70;;;;;;5063364;28;20601;-47
2023/07/03 08:57:43;;;;;;;12.23;8.77;;;25.60;43.60;;;;;;5061589;28;20541;-46
2023/07/03 09:00:11;;;;;;;18.80;9.50;;;25.50;43.70;;;;;;5056909;28;20807;-52
2023/07/03 09:02:49;;;;;;;11.30;7.90;;;25.60;43.50;;;;;;5064701;28;20238;-49
2023/07/03 09:05:33;;;;;;;13.00;9.17;;;25.60;43.50;;;;;;5066811;28;20965;-48
2023/07/03 09:08:06;;;;;;;13.37;8.63;;;25.50;43.60;;;;;;5074828;28;20487;-50
2023/07/03 09:10:47;;;;;;;14.63;8.27;;;25.40;43.60;;;;;;5079593;28;20971;-49
2023/07/03 09:13:39;;;;;;;14.33;8.73;;;25.30;43.80;;;;;;5071235;28;20525;-49
2023/07/03 09:16:11;;;;;;;13.17;8.30;;;25.50;43.20;;;;;;5064560;28;20941;-47
2023/07/03 09:18:50;;;;;;;17.23;7.97;;;25.70;42.90;;;;;;5068569;28;20458;-51
2023/07/03 09:21:16;;;;;;;19.53;9.20;;;25.90;42.40;;;;;;5068643;28;20466;-49
2023/07/03 09:23:54;;;;;;;11.67;8.60;;;25.90;42.30;;;;;;5068621;28;20462;-48
2023/07/03 09:26:38;;;;;;;15.00;8.63;;;26.00;41.80;;;;;;5059321;28;20486;-48
2023/07/03 09:29:05;;;;;;;12.47;7.90;;;26.00;41.50;;;;;;5059267;28;20450;-50
2023/07/03 09:31:31;;;;;;;13.07;7.47;;;25.80;41.90;;;;;;5060745;28;20454;-50
2023/07/03 09:33:58;;;;;;;12.17;8.57;;;25.80;42.10;;;;;;5066038;28;20449;-50
2023/07/03 09:36:37;;;;;;;10.80;7.30;;;26.00;42.00;;;;;;5058192;28;20451;-51
2023/07/03 09:39:17;;;;;;;16.20;7.60;;;26.10;41.60;;;;;;5063079;28;20453;-48
2023/07/03 09:41:43;;;;;;;11.13;7.70;;;26.10;41.30;;;;;;5064440;28;20450;-48
2023/07/03 09:44:17;;;;;;;13.90;7.57;;;26.30;41.70;;;;;;5061160;28;20438;-49
2023/07/03 09:46:46;;;;;;;9.53;8.10;;;26.40;40.80;;;;;;5069053;28;20459;-49
2023/07/03 09:49:24;;;;;;;12.73;7.23;;;26.50;40.60;;;;;;5063137;28;20450;-48
2023/07/03 09:51:53;;;;;;;11.43;8.33;;;26.70;40.20;;;;;;5057229;28;20453;-50
2023/07/03 09:54:21;;;;;;;10.47;7.40;;;26.70;39.40;;;;;;5068034;28;20438;-51
2023/07/03 09:56:49;;;;;;;13.77;7.97;;;26.80;39.70;;;;;;5073479;28;20997;-52
2023/07/03 09:59:22;;;;;;;12.27;8.37;;;26.80;39.20;;;;;;5069382;28;20891;-50
2023/07/03 10:01:48;;;;;;;9.50;8.30;;;26.50;40.20;;;;;;5065352;28;20471;-50
2023/07/03 10:04:16;;;;;;;10.17;7.10;;;26.80;40.00;;;;;;5058905;28;20435;-51
2023/07/03 10:07:10;;;;;;;14.77;7.40;;;27.10;39.60;;;;;;5064471;28;20452;-51
2023/07/03 10:09:41;;;;;;;11.87;7.00;;;27.30;37.80;;;;;;5064122;28;20446;-48
2023/07/03 10:12:36;;;;;;;10.50;6.87;;;27.40;38.00;;;;;;5069812;28;20451;-49
2023/07/03 10:15:10;;;;;;;10.87;8.20;;;27.80;36.80;;;;;;5061899;28;20542;-52
2023/07/03 10:17:59;;;;;;;9.57;6.50;;;28.00;36.60;;;;;;5068931;28;20515;-53
2023/07/03 10:20:33;;;;;;;8.63;6.37;;;28.00;35.70;;;;;;5066981;28;20434;-48
2023/07/03 10:23:03;;;;;;;12.50;7.33;;;27.80;35.60;;;;;;5066943;28;20437;-49
2023/07/03 10:25:38;;;;;;;10.40;6.50;;;27.80;36.30;;;;;;5070540;28;20445;-49
2023/07/03 10:28:23;;;;;;;11.67;7.90;;;28.20;35.40;;;;;;5063855;28;20439;-53
2023/07/03 10:30:56;;;;;;;10.63;6.60;;;28.30;34.60;;;;;;5062988;28;20442;-49
2023/07/03 10:33:32;;;;;;;32.30;9.30;;;28.60;34.40;;;;;;5072925;28;20446;-50
2023/07/03 10:36:01;;;;;;;17.43;7.57;;;28.30;33.30;;;;;;5055877;28;20447;-56
2023/07/03 10:38:35;;;;;;;11.13;5.67;;;28.40;33.50;;;;;;5065184;28;20485;-52
2023/07/03 10:41:20;;;;;;;13.60;6.67;;;28.20;33.60;;;;;;5064952;28;20442;-49
2023/07/03 10:43:55;;;;;;;14.80;6.97;;;28.30;34.20;;;;;;5070720;28;20465;-55
2023/07/03 10:46:34;;;;;;;12.03;6.27;;;28.20;33.90;;;;;;5062144;28;20494;-52
2023/07/03 10:49:06;;;;;;;8.90;5.60;;;28.30;34.30;;;;;;5066167;28;20450;-48
2023/07/03 10:52:06;;;;;;;9.07;5.30;;;28.20;33.30;;;;;;5061717;28;20537;-50
2023/07/03 10:54:40;;;;;;;15.33;6.30;;;28.20;33.10;;;;;;5035613;28;20494;-49
2023/07/03 10:57:09;;;;;;;8.00;6.17;;;28.20;33.90;;;;;;5068553;28;20849;-52
2023/07/03 10:59:40;;;;;;;12.40;5.43;;;28.50;34.20;;;;;;5066575;28;21263;-50
2023/07/03 11:02:34;;;;;;;8.00;5.30;;;28.20;32.40;;;;;;5065416;28;20429;-53
2023/07/03 11:05:13;;;;;;;8.23;5.03;;;28.00;33.20;;;;;;5063828;28;20500;-49
2023/07/03 11:08:04;;;;;;;8.07;3.97;;;28.20;33.00;;;;;;5064438;28;20454;-49
2023/07/03 11:10:41;;;;;;;6.80;3.80;;;28.00;34.10;;;;;;5064343;28;20449;-52
2023/07/03 11:13:28;;;;;;;7.90;4.83;;;27.90;34.90;;;;;;5066945;28;20916;-50
2023/07/03 11:16:14;;;;;;;6.20;4.07;;;27.90;35.10;;;;;;5070199;28;20932;-51
2023/07/03 11:19:03;;;;;;;6.07;4.73;;;27.90;35.50;;;;;;5067321;28;20511;-49
2023/07/03 11:21:47;;;;;;;10.00;4.33;;;28.00;35.50;;;;;;5071679;28;20476;-49
2023/07/03 11:24:29;;;;;;;9.80;4.63;;;28.00;35.80;;;;;;5058304;28;20450;-49
2023/07/03 11:27:25;;;;;;;6.63;3.87;;;27.90;35.60;;;;;;5072794;28;20467;-48
2023/07/03 11:29:53;;;;;;;6.27;3.77;;;27.80;35.30;;;;;;5059973;28;20952;-53
2023/07/03 11:32:20;;;;;;;14.63;4.10;;;27.80;35.70;;;;;;5067594;28;20507;-50
2023/07/03 11:34:47;;;;;;;9.47;4.23;;;28.10;35.90;;;;;;5062958;28;20513;-54
2023/07/03 11:37:57;;;;;;;7.60;4.47;;;28.40;35.30;;;;;;5069403;28;20568;-53
2023/07/03 11:40:38;;;;;;;6.57;4.57;;;28.80;35.00;;;;;;5006706;28;20603;-49
2023/07/03 11:43:28;;;;;;;10.73;5.27;;;29.10;34.70;;;;;;5057394;28;20512;-49
2023/07/03 11:45:57;;;;;;;9.07;4.33;;;29.10;34.20;;;;;;5075668;28;20450;-51
2023/07/03 11:48:32;;;;;;;49.77;8.00;;;28.90;34.40;;;;;;5062921;28;20442;-50
2023/07/03 11:51:05;;;;;;;59.67;12.07;;;29.10;34.70;;;;;;5070362;28;20442;-53
2023/07/03 11:53:35;;;;;;;11.60;5.07;;;29.30;34.90;;;;;;5066493;28;20443;-53
2023/07/03 11:56:04;;;;;;;9.63;4.80;;;29.30;34.40;;;;;;5064305;28;20489;-51
2023/07/03 11:58:34;;;;;;;12.40;5.10;;;29.40;34.40;;;;;;5072571;28;20493;-52
2023/07/03 12:01:24;;;;;;;8.23;4.70;;;29.50;34.50;;;;;;5067277;28;21051;-54
2023/07/03 12:03:55;;;;;;;13.07;5.60;;;29.40;34.30;;;;;;5068596;28;20449;-49
2023/07/03 12:06:39;;;;;;;9.43;5.03;;;29.20;34.70;;;;;;5067010;28;20443;-59
2023/07/03 12:09:23;;;;;;;9.03;5.60;;;29.10;34.80;;;;;;5066151;28;20441;-49
2023/07/03 12:12:16;;;;;;;7.37;4.63;;;28.70;35.50;;;;;;5062755;28;20447;-51
2023/07/03 12:14:53;;;;;;;7.23;5.30;;;28.70;35.80;;;;;;5059734;28;20963;-52
2023/07/03 12:17:29;;;;;;;8.73;4.80;;;28.50;36.40;;;;;;5075069;28;20513;-53
2023/07/03 12:20:11;;;;;;;9.33;5.30;;;28.50;36.80;;;;;;5067103;28;20983;-54
2023/07/03 12:22:40;;;;;;;8.00;4.77;;;28.50;36.80;;;;;;5058170;28;20446;-56
2023/07/03 12:25:09;;;;;;;7.23;4.43;;;28.60;36.80;;;;;;5077234;28;20811;-57
2023/07/03 12:27:39;;;;;;;7.20;4.47;;;28.70;37.30;;;;;;5069224;28;20439;-52
2023/07/03 12:30:09;;;;;;;8.37;4.97;;;29.10;36.80;;;;;;5070918;28;20430;-54
2023/07/03 12:32:36;;;;;;;8.27;4.33;;;29.30;36.40;;;;;;5071950;28;20433;-51
2023/07/03 12:35:12;;;;;;;8.90;4.80;;;29.30;35.90;;;;;;5070562;28;20464;-50
2023/07/03 12:37:46;;;;;;;15.97;5.67;;;29.50;36.60;;;;;;5071144;28;20635;-53
2023/07/03 12:40:14;;;;;;;6.57;4.03;;;29.70;35.70;;;;;;5078676;28;20448;-52
2023/07/03 12:42:41;;;;;;;9.93;4.77;;;29.80;35.30;;;;;;5067454;28;20493;-53
2023/07/03 12:45:20;;;;;;;7.20;4.57;;;29.80;33.50;;;;;;5062566;28;20542;-56
2023/07/03 12:48:06;;;;;;;5.67;3.30;;;29.90;34.20;;;;;;5076739;28;20842;-50